Terminal Aerodrome Forecast
Issued by NWS

Home | Current Version | Previous Version | Text Only | Print | Product List | Glossary On
Versions: 1 2 3 4 5 6 7 8 9 10 11 12 13 14
000
FTAK31 PAJN 271143
TAFAGY
TAF
PAGY 271143Z 2712/2812 20015KT P6SM VCSH SCT020 OVC050
      TEMPO 2712/2716 6SM -SHRA BR SCT015 OVC035
     FM272200 21015G25KT P6SM OVC050
     FM280600 21012KT P6SM OVC050
      AMD LTD TO CLD VIS AND WIND=

USA.gov is the U.S. government's official web portal to all federal, state and local government web resources and services.